Time;durP1;ratioP1;P1;durP2;ratioP2;P2;SDS_P1;SDS_P2;PMS_P1;PMS_P2;Temp;Humidity;BMP_temperature;BMP_pressure;BME280_temperature;BME280_humidity;BME280_pressure;Samples;Min_cycle;Max_cycle;Signal;HPM_P1;HPM_P2
2021/07/07 00:01:48;;;;;;;3.97;1.63;;;16.30;99.90;;;;;;5016550;28;20487;-76
2021/07/07 00:04:15;;;;;;;7.72;1.85;;;16.30;99.90;;;;;;5016103;28;20037;-76
2021/07/07 00:06:41;;;;;;;4.97;2.00;;;16.20;99.90;;;;;;5036798;28;20041;-76
2021/07/07 00:09:07;;;;;;;4.45;2.10;;;16.20;99.90;;;;;;5042028;28;20046;-75
2021/07/07 00:11:33;;;;;;;4.63;2.05;;;16.20;99.90;;;;;;5035848;28;20021;-77
2021/07/07 00:13:59;;;;;;;3.25;2.20;;;16.20;99.90;;;;;;5034439;28;20021;-77
2021/07/07 00:16:27;;;;;;;5.65;2.00;;;16.10;99.90;;;;;;5033452;28;20046;-75
2021/07/07 00:18:53;;;;;;;5.13;1.83;;;16.10;99.90;;;;;;5034276;28;20029;-76
2021/07/07 00:21:20;;;;;;;3.78;1.90;;;16.20;99.90;;;;;;5017650;28;20057;-76
2021/07/07 00:23:46;;;;;;;4.20;2.05;;;16.10;99.90;;;;;;5015644;28;20153;-76
2021/07/07 00:26:12;;;;;;;3.08;1.70;;;16.10;99.90;;;;;;5024236;28;20030;-76
2021/07/07 00:28:38;;;;;;;2.55;1.52;;;16.10;99.90;;;;;;5033406;28;20029;-77
2021/07/07 00:31:05;;;;;;;2.78;1.70;;;16.10;99.90;;;;;;5034481;28;20036;-77
2021/07/07 00:33:31;;;;;;;3.00;1.60;;;16.10;99.90;;;;;;5033799;28;20041;-76
2021/07/07 00:35:57;;;;;;;3.78;1.85;;;16.10;99.90;;;;;;5034987;28;20030;-76
2021/07/07 00:38:23;;;;;;;4.72;1.83;;;16.10;99.90;;;;;;5017331;28;20045;-77
2021/07/07 00:40:50;;;;;;;4.40;1.85;;;16.10;99.90;;;;;;5034554;28;20040;-76
2021/07/07 00:43:16;;;;;;;3.30;2.63;;;16.00;99.90;;;;;;5020512;28;20038;-77
2021/07/07 00:45:43;;;;;;;6.00;2.70;;;16.00;99.90;;;;;;5027355;28;20057;-77
2021/07/07 00:48:10;;;;;;;5.72;2.20;;;16.00;99.90;;;;;;5029308;28;20029;-77
2021/07/07 00:50:36;;;;;;;4.70;1.92;;;16.10;99.90;;;;;;5044510;28;20022;-77
2021/07/07 00:53:02;;;;;;;7.18;2.60;;;16.00;99.90;;;;;;5042314;28;20594;-77
2021/07/07 00:55:29;;;;;;;6.35;2.72;;;16.00;99.90;;;;;;5033565;28;20050;-77
2021/07/07 00:57:57;;;;;;;5.57;2.40;;;16.00;99.90;;;;;;5016255;28;20029;-77
2021/07/07 01:00:24;;;;;;;7.40;3.25;;;15.90;99.90;;;;;;5032276;28;20375;-77
2021/07/07 01:02:54;;;;;;;7.03;3.00;;;15.90;99.90;;;;;;5015456;28;20044;-75
2021/07/07 01:05:20;;;;;;;7.05;3.83;;;15.90;99.90;;;;;;5032720;28;20034;-77
2021/07/07 01:07:47;;;;;;;7.28;3.25;;;15.90;99.90;;;;;;5021398;28;20383;-76
2021/07/07 01:10:14;;;;;;;7.95;3.83;;;15.90;99.90;;;;;;5013502;28;20025;-76
2021/07/07 01:12:42;;;;;;;8.98;3.65;;;16.00;99.90;;;;;;5031761;28;20060;-76
2021/07/07 01:15:16;;;;;;;7.93;3.80;;;15.90;99.90;;;;;;5014421;28;20034;-77
2021/07/07 01:17:43;;;;;;;5.50;3.80;;;15.90;99.90;;;;;;5022572;28;20036;-77
2021/07/07 01:20:12;;;;;;;6.63;4.07;;;16.00;99.90;;;;;;5032300;28;20049;-76
2021/07/07 01:22:39;;;;;;;8.15;4.93;;;16.00;99.90;;;;;;5032578;28;20037;-76
2021/07/07 01:25:09;;;;;;;7.20;4.22;;;16.00;99.90;;;;;;5012179;28;20046;-76
2021/07/07 01:27:36;;;;;;;8.43;4.22;;;16.00;99.90;;;;;;5021502;28;20037;-76
2021/07/07 01:30:08;;;;;;;6.97;3.97;;;16.00;99.90;;;;;;5033318;28;20467;-77
2021/07/07 01:32:34;;;;;;;6.63;4.15;;;16.00;99.90;;;;;;5004330;28;20060;-77
2021/07/07 01:35:03;;;;;;;8.93;4.55;;;15.90;99.90;;;;;;5032417;28;20691;-76
2021/07/07 01:37:30;;;;;;;7.15;4.10;;;16.00;99.90;;;;;;5032084;28;20112;-77
2021/07/07 01:39:56;;;;;;;9.52;4.82;;;16.00;99.90;;;;;;5014706;28;20037;-77
2021/07/07 01:42:22;;;;;;;7.65;4.38;;;16.00;99.90;;;;;;5031638;28;20046;-76
2021/07/07 01:44:48;;;;;;;12.43;4.57;;;16.00;99.90;;;;;;5024266;28;20498;-76
2021/07/07 01:47:15;;;;;;;8.98;4.40;;;16.00;99.90;;;;;;5031098;28;20042;-77
2021/07/07 01:49:41;;;;;;;6.65;4.35;;;16.00;99.90;;;;;;5020116;28;20042;-77
2021/07/07 01:52:07;;;;;;;9.05;3.65;;;15.90;99.90;;;;;;5015364;28;20041;-77
2021/07/07 01:54:33;;;;;;;6.22;3.20;;;15.90;99.90;;;;;;5024110;28;20046;-76
2021/07/07 01:57:00;;;;;;;9.68;3.88;;;15.90;99.90;;;;;;5020562;28;20029;-76
2021/07/07 01:59:26;;;;;;;7.43;2.90;;;15.80;99.90;;;;;;5034117;28;20386;-77
2021/07/07 02:01:52;;;;;;;6.28;2.95;;;15.80;99.90;;;;;;5034086;28;20033;-77
2021/07/07 02:04:21;;;;;;;7.28;3.95;;;15.70;99.90;;;;;;5020553;28;20080;-75
2021/07/07 02:06:49;;;;;;;3.92;2.72;;;15.70;99.90;;;;;;5021652;28;20398;-76
2021/07/07 02:09:18;;;;;;;9.98;3.38;;;15.70;99.90;;;;;;5025743;28;20036;-77
2021/07/07 02:11:47;;;;;;;9.40;3.58;;;15.60;99.90;;;;;;5001351;28;20383;-77
2021/07/07 02:14:14;;;;;;;12.98;4.55;;;15.60;99.90;;;;;;5034103;28;20044;-77
2021/07/07 02:16:41;;;;;;;6.18;3.30;;;15.60;99.90;;;;;;5034313;28;20029;-76
2021/07/07 02:19:07;;;;;;;8.25;3.05;;;15.60;99.90;;;;;;5018771;28;20032;-78
2021/07/07 02:21:33;;;;;;;7.70;2.75;;;15.50;99.90;;;;;;5014977;28;20061;-78
2021/07/07 02:24:00;;;;;;;6.75;2.83;;;15.50;99.90;;;;;;5026085;28;20061;-77
2021/07/07 02:26:26;;;;;;;7.68;2.90;;;15.50;99.90;;;;;;5033860;28;20029;-77
2021/07/07 02:28:52;;;;;;;8.77;3.30;;;15.50;99.90;;;;;;5034321;28;20037;-77
2021/07/07 02:31:18;;;;;;;5.03;3.20;;;15.50;99.90;;;;;;5033611;28;20034;-76
2021/07/07 02:33:45;;;;;;;5.85;3.33;;;15.40;99.90;;;;;;5018532;28;20034;-76
2021/07/07 02:36:11;;;;;;;6.93;3.50;;;15.40;99.90;;;;;;5014679;28;20033;-76
2021/07/07 02:38:37;;;;;;;4.97;3.78;;;15.40;99.90;;;;;;5023638;28;20048;-76
2021/07/07 02:41:03;;;;;;;6.03;3.25;;;15.40;99.90;;;;;;5034567;28;20030;-78
2021/07/07 02:43:30;;;;;;;5.15;3.90;;;15.40;99.90;;;;;;5027639;28;20030;-77
2021/07/07 02:45:56;;;;;;;10.75;3.90;;;15.30;99.90;;;;;;5023020;28;20335;-78
2021/07/07 02:48:22;;;;;;;5.90;3.50;;;15.30;99.90;;;;;;5033348;28;20493;-77
2021/07/07 02:50:49;;;;;;;7.28;3.17;;;15.30;99.90;;;;;;5012739;28;20038;-76
2021/07/07 02:53:17;;;;;;;6.85;2.58;;;15.30;99.90;;;;;;5026855;28;20037;-77
2021/07/07 02:55:44;;;;;;;6.25;2.50;;;15.30;99.90;;;;;;5017823;28;20060;-77
2021/07/07 02:58:10;;;;;;;4.85;2.75;;;15.30;99.90;;;;;;5029345;28;20033;-76
2021/07/07 03:00:45;;;;;;;4.82;2.60;;;15.20;99.90;;;;;;4997909;28;20464;-76
2021/07/07 03:03:20;;;;;;;10.85;3.15;;;15.20;99.90;;;;;;5027990;28;20054;-76
2021/07/07 03:05:57;;;;;;;7.47;2.90;;;15.20;99.90;;;;;;5031446;28;20030;-78
2021/07/07 03:08:29;;;;;;;4.00;2.00;;;15.10;99.90;;;;;;5037460;28;20034;-77
2021/07/07 03:10:57;;;;;;;7.03;2.70;;;15.10;99.90;;;;;;5021474;28;20030;-77
2021/07/07 03:13:24;;;;;;;7.18;2.65;;;15.10;99.90;;;;;;5017506;28;20399;-77
2021/07/07 03:15:51;;;;;;;5.50;2.67;;;15.10;99.90;;;;;;5026945;28;20046;-76
2021/07/07 03:18:18;;;;;;;4.03;2.70;;;15.10;99.90;;;;;;5021388;28;20033;-76
2021/07/07 03:20:46;;;;;;;3.75;2.38;;;15.00;99.90;;;;;;5020036;28;20373;-77
2021/07/07 03:23:15;;;;;;;7.50;2.50;;;15.00;99.90;;;;;;5026122;28;20045;-76
2021/07/07 03:25:41;;;;;;;3.45;2.25;;;15.00;99.90;;;;;;5037585;28;20039;-78
2021/07/07 03:28:07;;;;;;;4.22;2.00;;;15.00;99.90;;;;;;5028556;28;20471;-77
2021/07/07 03:30:35;;;;;;;7.25;2.58;;;15.00;99.90;;;;;;5018085;28;20057;-77
2021/07/07 03:33:01;;;;;;;6.70;2.08;;;15.00;99.90;;;;;;5019764;28;20037;-77
2021/07/07 03:35:28;;;;;;;3.22;2.53;;;15.00;99.90;;;;;;5022572;28;20036;-77
2021/07/07 03:37:55;;;;;;;5.85;2.58;;;15.10;99.90;;;;;;5037357;28;20037;-78
2021/07/07 03:40:23;;;;;;;8.38;2.50;;;15.00;99.90;;;;;;5026519;28;20038;-78
2021/07/07 03:42:49;;;;;;;6.75;2.35;;;15.00;99.90;;;;;;5017712;28;20048;-78
2021/07/07 03:45:17;;;;;;;4.28;2.00;;;14.90;99.90;;;;;;5027851;28;20036;-77
2021/07/07 03:47:45;;;;;;;3.75;2.28;;;15.00;99.90;;;;;;5036936;28;20467;-78
2021/07/07 03:50:12;;;;;;;6.68;1.98;;;15.00;99.90;;;;;;5035072;28;20037;-74
2021/07/07 03:52:39;;;;;;;8.65;2.20;;;14.90;99.90;;;;;;5017656;28;20465;-78
2021/07/07 03:55:08;;;;;;;8.88;2.58;;;14.90;99.90;;;;;;5022490;28;20038;-79
2021/07/07 03:57:35;;;;;;;15.52;3.05;;;14.90;99.90;;;;;;5022265;28;20037;-79
2021/07/07 04:00:03;;;;;;;6.07;2.38;;;14.90;99.90;;;;;;5036817;28;20045;-79
2021/07/07 04:02:38;;;;;;;7.43;2.75;;;14.90;99.90;;;;;;5044002;28;20038;-83
2021/07/07 04:05:05;;;;;;;4.22;1.95;;;15.00;99.90;;;;;;5025508;28;20033;-80
2021/07/07 04:07:32;;;;;;;7.85;2.60;;;15.00;99.90;;;;;;5034448;28;20232;-80
2021/07/07 04:09:58;;;;;;;4.38;2.28;;;15.10;99.90;;;;;;5036624;28;20387;-79
2021/07/07 04:12:24;;;;;;;6.70;3.03;;;15.00;99.90;;;;;;5036600;28;20033;-79
2021/07/07 04:14:51;;;;;;;8.57;2.70;;;15.00;99.90;;;;;;5020998;28;20364;-77
2021/07/07 04:17:17;;;;;;;8.80;2.75;;;15.00;99.90;;;;;;5024045;28;20034;-80
2021/07/07 04:19:43;;;;;;;5.03;2.17;;;15.00;99.90;;;;;;5038361;28;20033;-80
2021/07/07 04:22:10;;;;;;;4.97;2.03;;;15.10;99.90;;;;;;5028290;28;20037;-79
2021/07/07 04:24:36;;;;;;;4.05;2.42;;;15.10;99.90;;;;;;5024709;28;20484;-80
2021/07/07 04:27:03;;;;;;;6.75;1.83;;;15.00;99.90;;;;;;5020878;28;20030;-80
2021/07/07 04:29:31;;;;;;;4.32;2.13;;;15.10;99.90;;;;;;5006823;28;20033;-80
2021/07/07 04:31:57;;;;;;;10.48;2.53;;;15.00;99.90;;;;;;5035735;28;20053;-80
2021/07/07 04:34:26;;;;;;;7.32;3.03;;;15.10;99.90;;;;;;5035132;28;20101;-80
2021/07/07 04:36:54;;;;;;;5.18;2.30;;;15.10;99.90;;;;;;5037162;28;20037;-79
2021/07/07 04:39:20;;;;;;;6.30;2.67;;;15.10;99.90;;;;;;5039237;28;20037;-78
2021/07/07 04:41:46;;;;;;;7.55;2.15;;;15.10;99.90;;;;;;5032100;28;20040;-79
2021/07/07 04:44:12;;;;;;;7.22;2.22;;;15.20;99.90;;;;;;5016039;28;20046;-77
2021/07/07 04:46:39;;;;;;;5.95;1.83;;;15.30;99.90;;;;;;5023218;28;20029;-81
2021/07/07 04:49:05;;;;;;;5.85;2.38;;;15.30;99.90;;;;;;5021076;28;20032;-81
2021/07/07 04:51:31;;;;;;;7.35;2.30;;;15.30;99.90;;;;;;5018645;28;20026;-80
2021/07/07 04:53:58;;;;;;;5.03;2.00;;;15.40;99.90;;;;;;5033451;28;20037;-80
2021/07/07 04:56:24;;;;;;;5.10;2.88;;;15.40;99.90;;;;;;5025626;28;20042;-80
2021/07/07 04:58:52;;;;;;;3.78;2.00;;;15.30;99.90;;;;;;5032575;28;20133;-81
2021/07/07 05:01:18;;;;;;;7.93;2.20;;;15.40;99.90;;;;;;5020712;28;20026;-79
2021/07/07 05:03:44;;;;;;;5.50;1.77;;;15.40;99.90;;;;;;5033644;28;20041;-80
2021/07/07 05:06:10;;;;;;;5.78;2.17;;;15.40;99.90;;;;;;5022459;28;20487;-80
2021/07/07 05:08:37;;;;;;;4.88;2.00;;;15.30;99.90;;;;;;4996077;28;20049;-80
2021/07/07 05:11:03;;;;;;;4.05;1.90;;;15.30;99.90;;;;;;5015563;28;20056;-79
2021/07/07 05:13:30;;;;;;;6.43;2.63;;;15.40;99.90;;;;;;5022882;28;20045;-80
2021/07/07 05:15:57;;;;;;;5.25;1.98;;;15.40;99.90;;;;;;5025725;28;20030;-82
2021/07/07 05:18:23;;;;;;;7.38;2.25;;;15.40;99.90;;;;;;5032945;28;20383;-80
2021/07/07 05:20:49;;;;;;;5.70;2.50;;;15.40;99.90;;;;;;5028811;28;20391;-81
2021/07/07 05:23:15;;;;;;;6.55;3.30;;;15.50;99.90;;;;;;5006829;28;20052;-76
2021/07/07 05:25:42;;;;;;;6.60;2.17;;;15.50;99.90;;;;;;5025991;28;20660;-80
2021/07/07 05:28:08;;;;;;;8.93;2.20;;;15.50;99.90;;;;;;5033443;28;20040;-77
2021/07/07 05:30:35;;;;;;;4.63;2.33;;;15.50;99.90;;;;;;5030935;28;20049;-76
2021/07/07 05:33:02;;;;;;;6.88;2.35;;;15.60;99.90;;;;;;5014519;28;20030;-79
2021/07/07 05:35:28;;;;;;;4.45;1.63;;;15.70;99.90;;;;;;5028712;28;20032;-78
2021/07/07 05:37:55;;;;;;;6.25;1.98;;;15.80;99.90;;;;;;5031377;28;20463;-78
2021/07/07 05:40:22;;;;;;;4.15;2.15;;;16.00;99.90;;;;;;5013841;28;20041;-79
2021/07/07 05:42:58;;;;;;;3.70;1.88;;;16.10;99.90;;;;;;5013329;28;20041;-78
2021/07/07 05:45:26;;;;;;;3.50;1.70;;;16.00;99.90;;;;;;5017356;28;20038;-78
2021/07/07 05:47:53;;;;;;;5.57;1.92;;;16.20;99.90;;;;;;5028449;28;20061;-78
2021/07/07 05:50:21;;;;;;;6.05;2.55;;;16.20;99.90;;;;;;5028518;28;20482;-77
2021/07/07 05:52:47;;;;;;;7.63;2.20;;;16.30;99.90;;;;;;5032861;28;20036;-77
2021/07/07 05:55:14;;;;;;;6.57;2.42;;;16.30;99.90;;;;;;5027147;28;20034;-79
2021/07/07 05:57:40;;;;;;;4.43;1.77;;;16.40;99.90;;;;;;5016625;28;20050;-79
2021/07/07 06:00:13;;;;;;;5.28;2.03;;;16.60;99.90;;;;;;5032437;28;20036;-78
2021/07/07 06:02:41;;;;;;;4.45;1.95;;;16.80;99.90;;;;;;5031607;28;20038;-78
2021/07/07 06:05:09;;;;;;;4.43;1.85;;;16.90;99.90;;;;;;5045792;28;20040;-78
2021/07/07 06:07:36;;;;;;;3.17;1.70;;;17.00;99.90;;;;;;5046016;28;20100;-78
2021/07/07 06:10:04;;;;;;;4.65;1.85;;;17.10;99.90;;;;;;5017960;28;20053;-78
2021/07/07 06:12:30;;;;;;;5.47;1.85;;;17.50;99.90;;;;;;5029691;28;20048;-78
2021/07/07 06:14:57;;;;;;;3.95;1.80;;;18.30;99.90;;;;;;5014911;28;20041;-79
2021/07/07 06:17:23;;;;;;;3.85;1.55;;;18.70;99.90;;;;;;5032461;28;20033;-78
2021/07/07 06:19:50;;;;;;;6.30;1.77;;;18.90;99.90;;;;;;5023427;28;20029;-79
2021/07/07 06:22:16;;;;;;;4.10;1.77;;;19.40;99.90;;;;;;5014089;28;20034;-78
2021/07/07 06:24:42;;;;;;;1.77;1.00;;;19.30;99.90;;;;;;5028232;28;20052;-80
2021/07/07 06:27:08;;;;;;;5.05;1.88;;;18.80;99.90;;;;;;5025758;28;20040;-80
2021/07/07 06:29:35;;;;;;;4.88;2.08;;;19.40;99.90;;;;;;5033579;28;20443;-80
2021/07/07 06:32:01;;;;;;;5.93;1.60;;;19.90;99.90;;;;;;5015341;28;20037;-80
2021/07/07 06:34:27;;;;;;;6.60;2.38;;;20.00;99.90;;;;;;5031356;28;20137;-80
2021/07/07 06:36:54;;;;;;;4.68;1.63;;;19.60;99.90;;;;;;5032308;28;20398;-80
2021/07/07 06:39:20;;;;;;;4.05;1.40;;;20.00;99.90;;;;;;5027419;28;20100;-79
2021/07/07 06:41:46;;;;;;;7.60;1.80;;;19.50;99.90;;;;;;5027170;28;20049;-80
2021/07/07 06:44:12;;;;;;;5.32;1.75;;;19.00;99.90;;;;;;5025227;28;20049;-80
2021/07/07 06:46:39;;;;;;;5.60;1.50;;;19.00;99.90;;;;;;5035636;28;20394;-79
2021/07/07 06:49:05;;;;;;;5.25;1.80;;;19.20;99.90;;;;;;5023819;28;20030;-79
2021/07/07 06:51:31;;;;;;;5.45;1.77;;;19.30;99.90;;;;;;5017374;28;20052;-79
2021/07/07 06:53:57;;;;;;;5.22;1.85;;;19.20;99.90;;;;;;5031434;28;20375;-78
2021/07/07 06:56:24;;;;;;;5.82;2.03;;;19.10;99.90;;;;;;5035166;28;20509;-79
2021/07/07 06:58:50;;;;;;;7.07;1.90;;;19.10;99.90;;;;;;5036340;28;20100;-76
2021/07/07 07:01:16;;;;;;;7.32;1.67;;;19.00;99.90;;;;;;5020938;28;20475;-77
2021/07/07 07:03:43;;;;;;;6.20;1.73;;;18.50;99.90;;;;;;5017185;28;20463;-79
2021/07/07 07:06:09;;;;;;;3.40;1.65;;;19.10;99.90;;;;;;5016579;28;20042;-79
2021/07/07 07:08:36;;;;;;;2.80;1.60;;;19.30;99.90;;;;;;5033705;28;20459;-78
2021/07/07 07:11:02;;;;;;;5.53;1.83;;;19.20;99.90;;;;;;5018288;28;20048;-79
2021/07/07 07:13:28;;;;;;;6.43;1.98;;;20.90;99.90;;;;;;5016758;28;20498;-79
2021/07/07 07:15:54;;;;;;;4.38;1.95;;;22.00;99.90;;;;;;5018594;28;20041;-79
2021/07/07 07:18:21;;;;;;;4.10;1.67;;;23.70;97.70;;;;;;5027857;28;20041;-78
2021/07/07 07:20:47;;;;;;;3.83;1.40;;;25.20;92.60;;;;;;5017562;28;20038;-80
2021/07/07 07:23:15;;;;;;;5.30;1.80;;;25.20;91.10;;;;;;5018244;28;20034;-76
2021/07/07 07:25:42;;;;;;;5.72;1.65;;;23.20;91.10;;;;;;5028667;28;20037;-78
2021/07/07 07:28:09;;;;;;;3.95;1.38;;;22.80;92.50;;;;;;5030555;28;20030;-79
2021/07/07 07:30:36;;;;;;;5.05;1.73;;;23.60;91.40;;;;;;5024862;28;20255;-79
2021/07/07 07:33:02;;;;;;;6.07;1.25;;;24.60;88.10;;;;;;5036413;28;20033;-80
2021/07/07 07:35:28;;;;;;;2.38;0.82;;;26.00;87.60;;;;;;5023233;28;20038;-80
2021/07/07 07:38:05;;;;;;;4.63;1.67;;;26.40;84.00;;;;;;5026784;28;20029;-80
2021/07/07 07:40:41;;;;;;;2.58;1.10;;;26.30;80.70;;;;;;5029127;28;20041;-77
2021/07/07 07:43:10;;;;;;;4.07;1.27;;;25.80;78.80;;;;;;5036501;28;20140;-79
2021/07/07 07:45:37;;;;;;;6.05;1.88;;;25.00;79.40;;;;;;5034729;28;20286;-79
2021/07/07 07:48:05;;;;;;;4.63;1.58;;;25.00;80.40;;;;;;5036093;28;20041;-78
2021/07/07 07:50:32;;;;;;;7.88;1.58;;;22.90;84.90;;;;;;5015899;28;20030;-80
2021/07/07 07:52:58;;;;;;;4.43;1.25;;;23.80;84.60;;;;;;5019035;28;20467;-79
2021/07/07 07:55:25;;;;;;;4.60;1.13;;;24.70;81.00;;;;;;5016852;28;20069;-78
2021/07/07 07:57:51;;;;;;;4.85;1.58;;;24.10;82.20;;;;;;5032142;28;20069;-78
2021/07/07 08:00:20;;;;;;;5.00;1.63;;;24.50;79.60;;;;;;5035887;28;20493;-77
2021/07/07 08:02:48;;;;;;;4.45;1.50;;;23.10;86.40;;;;;;5036295;28;20036;-78
2021/07/07 08:05:15;;;;;;;3.28;1.25;;;24.80;79.50;;;;;;5017177;28;20045;-79
2021/07/07 08:07:42;;;;;;;3.60;1.20;;;24.50;78.30;;;;;;5026857;28;20383;-78
2021/07/07 08:10:15;;;;;;;3.25;1.02;;;23.60;81.50;;;;;;5028529;28;20033;-79
2021/07/07 08:12:42;;;;;;;5.43;0.98;;;23.90;81.70;;;;;;5035788;28;20033;-79
2021/07/07 08:15:09;;;;;;;6.80;1.15;;;24.50;82.40;;;;;;5019651;28;20034;-80
2021/07/07 08:17:36;;;;;;;3.67;1.40;;;26.00;78.50;;;;;;5022933;28;20045;-78
2021/07/07 08:20:05;;;;;;;3.50;1.23;;;26.50;75.40;;;;;;5036749;28;20029;-77
2021/07/07 08:22:31;;;;;;;4.68;1.08;;;25.70;75.20;;;;;;5028502;28;20038;-80
2021/07/07 08:24:58;;;;;;;3.95;1.20;;;25.50;76.10;;;;;;5038509;28;20045;-78
2021/07/07 08:27:24;;;;;;;4.32;1.40;;;24.70;75.00;;;;;;5026431;28;20060;-78
2021/07/07 08:29:50;;;;;;;3.20;0.90;;;24.40;79.50;;;;;;5028036;28;20025;-78
2021/07/07 08:32:16;;;;;;;5.03;1.73;;;24.90;76.50;;;;;;5021059;28;20351;-77
2021/07/07 08:34:43;;;;;;;4.75;0.85;;;24.50;75.70;;;;;;5023804;28;20034;-77
2021/07/07 08:37:13;;;;;;;3.75;1.20;;;25.10;76.70;;;;;;5035126;28;20029;-78
2021/07/07 08:39:39;;;;;;;3.97;1.08;;;25.60;74.50;;;;;;5021459;28;20064;-77
2021/07/07 08:42:05;;;;;;;4.93;1.23;;;25.40;73.20;;;;;;5033391;28;20395;-77
2021/07/07 08:44:32;;;;;;;5.95;1.25;;;25.40;75.60;;;;;;5033831;28;20048;-78
2021/07/07 08:46:58;;;;;;;3.13;1.20;;;25.60;72.70;;;;;;5034342;28;20033;-76
2021/07/07 08:49:24;;;;;;;3.15;0.80;;;26.50;70.00;;;;;;5033844;28;20034;-76
2021/07/07 08:51:51;;;;;;;4.40;1.42;;;25.40;70.60;;;;;;5033392;28;20033;-76
2021/07/07 08:54:18;;;;;;;3.75;1.23;;;24.60;71.90;;;;;;5014734;28;20030;-77
2021/07/07 08:56:48;;;;;;;5.05;1.30;;;24.50;74.00;;;;;;5014773;28;20061;-77
2021/07/07 08:59:16;;;;;;;2.67;0.88;;;25.20;75.50;;;;;;5002399;28;20046;-78
2021/07/07 09:02:12;;;;;;;5.95;1.50;;;25.50;73.00;;;;;;5011647;28;20545;-78
2021/07/07 09:04:43;;;;;;;3.33;1.25;;;24.50;74.70;;;;;;5005650;28;20060;-78
2021/07/07 09:07:10;;;;;;;3.03;1.13;;;25.20;72.50;;;;;;5006512;28;20037;-78
2021/07/07 09:09:57;;;;;;;4.43;1.23;;;24.90;71.30;;;;;;5042403;28;20029;-78
2021/07/07 09:12:27;;;;;;;2.60;1.17;;;24.60;73.30;;;;;;5037356;28;20041;-78
2021/07/07 09:15:04;;;;;;;3.60;1.13;;;25.10;73.20;;;;;;5030069;28;20042;-78
2021/07/07 09:17:41;;;;;;;2.90;0.88;;;25.10;73.40;;;;;;5036017;28;20351;-78
2021/07/07 09:20:25;;;;;;;3.50;1.20;;;25.70;75.70;;;;;;5029637;28;20348;-79
2021/07/07 09:23:18;;;;;;;3.10;0.90;;;26.20;73.20;;;;;;5033691;28;20036;-77
2021/07/07 09:25:53;;;;;;;3.92;1.35;;;24.90;73.10;;;;;;5033188;28;20506;-77
2021/07/07 09:28:29;;;;;;;2.50;1.13;;;23.00;77.80;;;;;;5023379;28;20213;-77
2021/07/07 09:31:02;;;;;;;5.30;1.38;;;23.10;78.30;;;;;;5032724;28;20462;-78
2021/07/07 09:33:42;;;;;;;5.00;1.60;;;23.60;79.90;;;;;;5033221;28;20030;-77
2021/07/07 09:36:25;;;;;;;4.32;1.20;;;25.00;74.50;;;;;;5021910;28;20038;-79
2021/07/07 09:38:53;;;;;;;5.50;1.00;;;25.30;74.60;;;;;;5025784;28;20033;-78
2021/07/07 09:41:20;;;;;;;7.25;1.30;;;25.80;72.70;;;;;;5020901;28;20045;-78
2021/07/07 09:43:50;;;;;;;3.75;0.80;;;25.90;74.50;;;;;;5029156;28;20038;-79
2021/07/07 09:46:18;;;;;;;3.35;1.27;;;25.50;72.00;;;;;;5013297;28;20045;-78
2021/07/07 09:48:47;;;;;;;5.20;1.08;;;25.40;69.40;;;;;;4996994;28;20041;-79
2021/07/07 09:51:13;;;;;;;4.80;1.10;;;24.70;71.50;;;;;;5033478;28;20475;-77
2021/07/07 09:53:40;;;;;;;3.28;1.42;;;24.70;73.50;;;;;;5032451;28;20284;-77
2021/07/07 09:56:06;;;;;;;4.20;1.13;;;25.20;72.80;;;;;;5032479;28;20064;-76
2021/07/07 09:58:32;;;;;;;5.55;1.13;;;25.40;69.90;;;;;;5013852;28;20459;-76
2021/07/07 10:00:59;;;;;;;4.30;1.17;;;24.90;70.40;;;;;;5016730;28;20088;-77
2021/07/07 10:03:25;;;;;;;2.25;1.02;;;24.80;72.40;;;;;;5032474;28;20036;-77
2021/07/07 10:05:52;;;;;;;4.95;1.15;;;25.20;70.20;;;;;;5024321;28;20045;-76
2021/07/07 10:08:19;;;;;;;3.55;1.15;;;24.70;67.70;;;;;;5025839;28;20040;-76
2021/07/07 10:10:47;;;;;;;3.45;1.02;;;24.20;70.80;;;;;;5032579;28;20451;-76
2021/07/07 10:13:15;;;;;;;4.85;1.30;;;24.60;73.60;;;;;;5013324;28;20042;-76
2021/07/07 10:15:41;;;;;;;3.70;0.90;;;25.00;67.80;;;;;;5013223;28;20048;-77
2021/07/07 10:18:08;;;;;;;4.40;1.27;;;25.50;71.00;;;;;;5029900;28;20033;-77
2021/07/07 10:20:35;;;;;;;4.47;1.65;;;25.40;68.90;;;;;;5019709;28;20045;-76
2021/07/07 10:23:04;;;;;;;4.38;1.00;;;25.30;67.60;;;;;;5020420;28;20033;-76
2021/07/07 10:25:34;;;;;;;3.35;0.85;;;25.10;70.30;;;;;;5024878;28;20033;-77
2021/07/07 10:28:07;;;;;;;3.53;1.08;;;25.00;67.20;;;;;;5013736;28;20037;-78
2021/07/07 10:30:50;;;;;;;3.35;0.90;;;24.90;68.90;;;;;;5013362;28;20049;-79
2021/07/07 10:33:19;;;;;;;5.22;1.17;;;24.90;67.30;;;;;;5015517;28;20037;-79
2021/07/07 10:35:46;;;;;;;4.40;1.20;;;24.70;68.30;;;;;;5013027;28;20049;-78
2021/07/07 10:38:13;;;;;;;6.47;1.27;;;24.60;68.10;;;;;;5025155;28;20037;-77
2021/07/07 10:40:44;;;;;;;5.70;1.50;;;24.50;69.20;;;;;;5031606;28;20379;-78
2021/07/07 10:43:42;;;;;;;4.80;1.73;;;24.30;69.50;;;;;;5007096;28;20409;-77
2021/07/07 10:46:08;;;;;;;3.65;1.13;;;24.30;65.10;;;;;;5031753;28;20061;-78
2021/07/07 10:48:34;;;;;;;3.72;1.10;;;23.80;67.90;;;;;;5030969;28;20041;-78
2021/07/07 10:51:09;;;;;;;6.95;1.08;;;23.60;67.70;;;;;;5032573;28;20030;-78
2021/07/07 10:53:37;;;;;;;6.47;1.38;;;23.80;69.10;;;;;;5016617;28;21125;-78
2021/07/07 10:56:06;;;;;;;4.85;1.30;;;24.00;69.40;;;;;;5032263;28;20054;-78
2021/07/07 10:58:37;;;;;;;3.90;1.23;;;24.20;67.60;;;;;;5032249;28;20044;-78
2021/07/07 11:01:24;;;;;;;5.00;1.30;;;24.20;69.10;;;;;;5032779;28;20029;-79
2021/07/07 11:04:01;;;;;;;4.50;1.20;;;23.90;68.60;;;;;;5013666;28;20482;-78
2021/07/07 11:06:39;;;;;;;3.58;0.90;;;24.20;67.10;;;;;;5014991;28;20042;-79
2021/07/07 11:09:14;;;;;;;6.32;1.48;;;24.40;67.40;;;;;;5020542;28;20525;-78
2021/07/07 11:11:45;;;;;;;4.85;1.25;;;24.80;65.60;;;;;;5024077;28;20045;-78
2021/07/07 11:14:22;;;;;;;4.50;1.02;;;25.00;64.60;;;;;;5028011;28;20033;-78
2021/07/07 11:17:00;;;;;;;5.80;1.20;;;24.40;64.90;;;;;;5028585;28;20040;-79
2021/07/07 11:19:40;;;;;;;3.63;1.52;;;24.10;65.10;;;;;;5033881;28;20037;-77
2021/07/07 11:22:11;;;;;;;4.15;1.00;;;23.90;63.80;;;;;;5024015;28;20045;-77
2021/07/07 11:24:43;;;;;;;6.05;1.45;;;23.80;64.40;;;;;;5036030;28;20402;-78
2021/07/07 11:27:09;;;;;;;4.55;1.20;;;23.90;65.10;;;;;;5017961;28;20030;-76
2021/07/07 11:29:36;;;;;;;3.80;1.50;;;24.10;63.10;;;;;;5016315;28;20076;-79
2021/07/07 11:32:28;;;;;;;4.25;1.50;;;23.90;63.90;;;;;;5031039;28;20046;-78
2021/07/07 11:35:00;;;;;;;4.90;1.52;;;24.10;66.30;;;;;;5004337;28;20057;-76
2021/07/07 11:37:31;;;;;;;4.10;1.00;;;24.20;64.70;;;;;;5032935;28;20045;-76
2021/07/07 11:40:20;;;;;;;4.90;1.40;;;24.20;63.80;;;;;;5017091;28;20041;-78
2021/07/07 11:43:01;;;;;;;3.95;1.15;;;24.40;64.40;;;;;;5022746;28;20395;-77
2021/07/07 11:45:32;;;;;;;6.38;1.75;;;25.20;62.30;;;;;;5037241;28;20033;-77
2021/07/07 11:48:09;;;;;;;6.63;1.17;;;25.00;63.60;;;;;;5029302;28;20034;-78
2021/07/07 11:50:38;;;;;;;3.65;1.05;;;25.20;62.40;;;;;;5015990;28;20030;-79
2021/07/07 11:53:06;;;;;;;6.47;1.40;;;25.50;63.10;;;;;;4999836;28;20045;-78
2021/07/07 11:56:07;;;;;;;4.15;1.52;;;25.70;63.00;;;;;;5030000;28;20387;-78
2021/07/07 11:58:39;;;;;;;3.67;1.08;;;25.40;62.20;;;;;;5013255;28;20053;-77
2021/07/07 12:01:18;;;;;;;5.95;1.45;;;25.30;61.40;;;;;;5015974;28;20048;-77
2021/07/07 12:04:08;;;;;;;6.85;1.25;;;25.20;62.40;;;;;;5031731;28;20368;-78
2021/07/07 12:06:45;;;;;;;4.45;1.50;;;25.40;61.80;;;;;;5015233;28;20045;-78
2021/07/07 12:09:16;;;;;;;7.18;1.33;;;25.10;58.70;;;;;;5022474;28;20497;-77
2021/07/07 12:11:55;;;;;;;8.80;3.63;;;24.70;58.10;;;;;;5034965;28;20282;-77
2021/07/07 12:14:23;;;;;;;6.22;1.58;;;25.10;59.10;;;;;;5032227;28;20064;-77
2021/07/07 12:16:50;;;;;;;7.68;1.50;;;25.20;59.10;;;;;;5019127;28;20033;-77
2021/07/07 12:19:17;;;;;;;4.72;1.13;;;25.30;59.50;;;;;;5028165;28;20038;-77
2021/07/07 12:21:47;;;;;;;4.78;1.42;;;25.40;60.30;;;;;;5017817;28;20641;-78
2021/07/07 12:24:17;;;;;;;4.80;1.20;;;25.30;60.40;;;;;;5039942;28;20037;-78
2021/07/07 12:26:47;;;;;;;4.60;1.10;;;25.70;59.50;;;;;;5045188;28;20045;-76
2021/07/07 12:29:22;;;;;;;2.77;0.73;;;25.70;58.30;;;;;;5039005;28;20040;-77
2021/07/07 12:31:52;;;;;;;4.22;1.08;;;25.70;59.50;;;;;;5025078;28;20277;-77
2021/07/07 12:34:25;;;;;;;3.42;0.80;;;25.80;59.90;;;;;;5027508;28;20391;-78
2021/07/07 12:36:54;;;;;;;3.67;1.40;;;25.50;58.90;;;;;;5024863;28;20044;-78
2021/07/07 12:39:23;;;;;;;4.22;1.30;;;25.60;58.20;;;;;;5030340;28;20045;-78
2021/07/07 12:42:08;;;;;;;2.77;0.87;;;25.60;60.50;;;;;;5024805;28;20033;-78
2021/07/07 12:44:39;;;;;;;5.82;1.45;;;25.70;60.60;;;;;;5034432;28;20035;-78
2021/07/07 12:47:08;;;;;;;4.88;1.30;;;25.60;59.80;;;;;;5019334;28;20033;-77
2021/07/07 12:49:44;;;;;;;5.95;0.85;;;25.50;57.40;;;;;;5014883;28;20490;-78
2021/07/07 12:52:17;;;;;;;7.35;1.23;;;25.30;57.40;;;;;;5015052;28;20049;-75
2021/07/07 12:54:44;;;;;;;4.53;1.13;;;25.50;57.10;;;;;;5024508;28;20052;-77